MSC Gina — 3FLY9 — position and weather

sailwx.info

Track history (hours):
 
Tides and Currents Weather Stations Pressure Air Temp Water Temp Dewpoint Dewpoint Depression Visibility Wind Speed Wind Dir Waves Ship Positions

MSC Gina

Last reported at 2014-Oct-18 14:33 UTC. Time now 2014-Oct-21 21:30 UTC.
Position N 38°18' W 010°41'.

Length 259 m; draft 10.4 m.

Type: Ship (hazmat cat A). MMSI: 357542000.

Date/timePositionNaut miles runAvg speedWind from/ knotsBaromVisibWave heightAir tempDewpointWater temp
2014-Oct-18 14:33N 38°18' W 010°41'1616.1
2014-Oct-18 13:33N 38°11' W 010°22'1616.0
2014-Oct-18 12:32N 38°05' W 010°03'1616.0
2014-Oct-18 11:33N 37°59' W 009°45'1717.2
2014-Oct-18 10:33N 37°54' W 009°23'1717.2
2014-Oct-18 09:33N 37°54' W 009°02'9 8.8
2014-Oct-18 08:33N 37°56' W 008°51'0 0.0
2014-Oct-18 07:33N 37°56' W 008°51'0 0.0
2014-Oct-18 06:33N 37°56' W 008°51'0 0.0
2014-Oct-18 05:33N 37°56' W 008°51'0 0.0
2014-Oct-18 04:33N 37°56' W 008°51'0 0.0
2014-Oct-18 03:33N 37°56' W 008°51'0 0.0
2014-Oct-18 02:33N 37°56' W 008°51'0 0.0
2014-Oct-18 01:33N 37°56' W 008°51'0 0.0
2014-Oct-18 00:33N 37°56' W 008°51'0 0.0
2014-Oct-17 23:33N 37°56' W 008°51'0 0.0
2014-Oct-17 22:30N 37°56' W 008°51'0 0.0
2014-Oct-17 21:33N 37°56' W 008°51'0 0.5
2014-Oct-17 20:33N 37°56' W 008°51'4 4.3
2014-Oct-17 19:33N 37°53' W 008°54'2 2.2
2014-Oct-17 18:33N 37°54' W 008°57'1 1.4
2014-Oct-17 17:33N 37°54' W 008°58'1 0.9
2014-Oct-17 16:33N 37°53' W 008°59'1 0.6
2014-Oct-17 15:32N 37°53' W 008°59'2 1.6
2014-Oct-17 14:30N 37°52' W 008°57'2 2.3
2014-Oct-17 13:33N 37°50' W 008°55'1212.3
2014-Oct-17 12:33N 37°39' W 009°01'1817.4
2014-Oct-17 11:33N 37°23' W 009°10'4615.2
2014-Oct-17 08:33N 36°39' W 008°52'16419.9
2014-Oct-17 00:18N 35°57' W 005°35'1418.6
2014-Oct-16 23:33N 36°02' W 005°19'21219.3
2014-Oct-16 12:33N 37°09' W 001°08'2120.9
2014-Oct-16 11:33N 37°23' W 000°48'2121.0
2014-Oct-16 10:33N 37°39' W 000°30'2120.9
2014-Oct-16 09:33N 37°56' W 000°15'2221.4
2014-Oct-16 08:33N 38°14' W 000°02'6917.2
2014-Oct-16 04:33N 39°23' W 000°12'7 6.8
2014-Oct-16 03:33N 39°26' W 000°19'0 0.0
2014-Oct-16 02:32N 39°26' W 000°19'0 0.0
2014-Oct-16 01:32N 39°26' W 000°19'0 0.0
2014-Oct-16 00:32N 39°26' W 000°19'0 0.0
2014-Oct-15 23:32N 39°26' W 000°19'0 0.0
2014-Oct-15 22:29N 39°26' W 000°19'0 0.0
2014-Oct-15 21:20N 39°26' W 000°19'0 0.0
2014-Oct-15 20:29N 39°26' W 000°19'0 0.0
2014-Oct-15 19:32N 39°26' W 000°19'0 0.0
2014-Oct-15 18:29N 39°26' W 000°19'3 3.3
2014-Oct-15 17:33N 39°25' W 000°16'4 3.7
2014-Oct-15 16:34N 39°26' W 000°11'3020.7
2014-Oct-15 15:05N 39°39' E 000°25'1121.0
2014-Oct-15 14:33N 39°44' E 000°38'2121.0
2014-Oct-15 13:33N 39°54' E 001°02'2221.7
2014-Oct-15 12:33N 40°05' E 001°26'2120.9
2014-Oct-15 11:33N 40°16' E 001°50'2121.2
2014-Oct-15 10:33N 40°27' E 002°13'2121.3
2014-Oct-15 09:33N 40°38' E 002°37'2120.9
2014-Oct-15 08:33N 40°49' E 003°01'2121.0
2014-Oct-15 07:33N 40°60' E 003°25'2726.0
2014-Oct-15 06:32N 41°13' E 003°55'23021.0
2014-Oct-14 19:33N 43°18' E 008°17'2221.9
2014-Oct-14 18:34N 43°30' E 008°42'2221.5
2014-Oct-14 17:33N 43°40' E 009°08'2221.7
2014-Oct-14 16:34N 43°52' E 009°33'1818.0
2014-Oct-14 15:34N 44°02' E 009°54'4 4.0
2014-Oct-14 14:33N 43°58' E 009°55'1 0.6
2014-Oct-14 13:33N 43°58' E 009°54'0 0.2
2014-Oct-14 12:34N 43°58' E 009°54'7 6.7
2014-Oct-14 11:34N 44°04' E 009°51'3 2.7
2014-Oct-14 10:32N 44°07' E 009°50'0 0.0
2014-Oct-14 09:32N 44°07' E 009°50'0 0.0
2014-Oct-14 08:32N 44°07' E 009°50'0 0.0
2014-Oct-14 07:32N 44°07' E 009°50'0 0.0
2014-Oct-14 06:32N 44°07' E 009°50'0 0.0
2014-Oct-14 05:32N 44°07' E 009°50'0 0.0
2014-Oct-14 04:32N 44°07' E 009°50'0 0.0
2014-Oct-14 03:32N 44°07' E 009°50'0 0.0
2014-Oct-14 02:32N 44°07' E 009°50'0 0.0
2014-Oct-14 01:32N 44°07' E 009°50'0 0.0
2014-Oct-14 00:32N 44°07' E 009°50'0 0.0
2014-Oct-13 23:32N 44°07' E 009°50'0 0.0
2014-Oct-13 22:32N 44°07' E 009°50'0 0.0
2014-Oct-13 21:32N 44°07' E 009°50'0 0.0
2014-Oct-13 20:32N 44°07' E 009°50'0 0.0
2014-Oct-13 19:32N 44°07' E 009°50'0 0.0
2014-Oct-13 18:32N 44°07' E 009°50'0 0.0
2014-Oct-13 17:29N 44°07' E 009°50'0 0.0
2014-Oct-13 16:32N 44°07' E 009°50'0 0.0
2014-Oct-13 15:32N 44°07' E 009°50'0 0.0
2014-Oct-13 14:32N 44°07' E 009°50'0 0.0
2014-Oct-13 13:32N 44°07' E 009°50'0 0.0
2014-Oct-13 12:32N 44°07' E 009°50'0 0.0
2014-Oct-13 11:32N 44°07' E 009°50'0 0.0
2014-Oct-13 10:26N 44°07' E 009°50'0 0.0
2014-Oct-13 09:32N 44°07' E 009°50'0 0.0
2014-Oct-13 08:32N 44°07' E 009°50'54 6.8
2014-Oct-13 00:30N 43°13' E 009°41'40211.1
2014-Oct-11 12:29N 38°27' E 015°54'0 0.0
2014-Oct-11 10:29N 38°27' E 015°54'5 2.5
2014-Oct-11 08:31N 38°27' E 015°48'9 9.6
2014-Oct-11 07:32N 38°26' E 015°36'1010.3
2014-Oct-11 06:33N 38°23' E 015°24'1010.0
2014-Oct-11 05:32N 38°20' E 015°11'1010.1
2014-Oct-11 04:33N 38°20' E 014°58'1010.3
2014-Oct-11 03:33N 38°20' E 014°45'1210.4
2014-Oct-11 02:25N 38°20' E 014°30'910.3
2014-Oct-11 01:33N 38°20' E 014°19'1010.2
2014-Oct-11 00:33N 38°21' E 014°06'1010.4
2014-Oct-10 23:33N 38°21' E 013°53'1010.2
2014-Oct-10 22:33N 38°21' E 013°40'1010.3
2014-Oct-10 21:33N 38°21' E 013°27'1010.2
2014-Oct-10 20:32N 38°21' E 013°13'1010.7
2014-Oct-10 19:33N 38°21' E 012°60'1110.4
2014-Oct-10 18:33N 38°21' E 012°46'1616.2
2014-Oct-10 17:32N 38°20' E 012°26'9217.3
2014-Oct-10 12:13N 38°07' E 010°29'1217.3
2014-Oct-10 11:33N 38°05' E 010°15'1717.3
2014-Oct-10 10:33N 38°03' E 009°53'3817.5
2014-Oct-10 08:24N 37°57' E 009°06'2017.5
2014-Oct-10 07:16N 37°54' E 008°41'1617.0
2014-Oct-10 06:20N 37°52' E 008°21'1718.4
2014-Oct-10 05:25N 37°50' E 007°60'3717.1
2014-Oct-10 03:15N 37°43' E 007°14'3117.0
2014-Oct-10 01:26N 37°37' E 006°36'1517.0
2014-Oct-10 00:33N 37°34' E 006°17'11917.0
2014-Oct-09 17:32N 37°12' E 003°50'1817.7
2014-Oct-09 16:31N 37°09' E 003°28'1717.3
2014-Oct-09 15:31N 37°05' E 003°06'1717.9
2014-Oct-09 14:33N 37°02' E 002°45'1817.8
2014-Oct-09 13:33N 36°60' E 002°23'1717.4
2014-Oct-09 12:33N 36°55' E 002°02'1717.4
2014-Oct-09 11:33N 36°52' E 001°41'1817.5
2014-Oct-09 10:33N 36°49' E 001°19'1818.2
2014-Oct-09 09:33N 36°45' E 000°57'1918.8
2014-Oct-09 08:33N 36°42' E 000°34'1918.6
2014-Oct-09 07:32N 36°39' E 000°10'1717.7
2014-Oct-09 06:33N 36°36' W 000°11'1918.4
2014-Oct-09 05:33N 36°32' W 000°33'2017.2
2014-Oct-09 04:24N 36°28' W 000°58'6917.6
2014-Oct-09 00:29N 36°15' W 002°21'13917.6
2014-Oct-08 16:33N 35°60' W 005°13'  
Track history (hours):
 
Tides and Currents Weather Stations Pressure Air Temp Water Temp Dewpoint Dewpoint Depression Visibility Wind Speed Wind Dir Waves Ship Positions

MSC Gina

Last reported at 2014-Oct-18 14:33 UTC. Time now 2014-Oct-21 21:30 UTC.
Position N 38°18' W 010°41'.

Length 259 m; draft 10.4 m.

Type: Ship (hazmat cat A). MMSI: 357542000.

Date/timePositionNaut miles runAvg speedWind from/ knotsBaromVisibWave heightAir tempDewpointWater temp
2014-Oct-18 14:33N 38°18' W 010°41'1616.1
2014-Oct-18 13:33N 38°11' W 010°22'1616.0
2014-Oct-18 12:32N 38°05' W 010°03'1616.0
2014-Oct-18 11:33N 37°59' W 009°45'1717.2
2014-Oct-18 10:33N 37°54' W 009°23'1717.2
2014-Oct-18 09:33N 37°54' W 009°02'9 8.8
2014-Oct-18 08:33N 37°56' W 008°51'0 0.0
2014-Oct-18 07:33N 37°56' W 008°51'0 0.0
2014-Oct-18 06:33N 37°56' W 008°51'0 0.0
2014-Oct-18 05:33N 37°56' W 008°51'0 0.0
2014-Oct-18 04:33N 37°56' W 008°51'0 0.0
2014-Oct-18 03:33N 37°56' W 008°51'0 0.0
2014-Oct-18 02:33N 37°56' W 008°51'0 0.0
2014-Oct-18 01:33N 37°56' W 008°51'0 0.0
2014-Oct-18 00:33N 37°56' W 008°51'0 0.0
2014-Oct-17 23:33N 37°56' W 008°51'0 0.0
2014-Oct-17 22:30N 37°56' W 008°51'0 0.0
2014-Oct-17 21:33N 37°56' W 008°51'0 0.5
2014-Oct-17 20:33N 37°56' W 008°51'4 4.3
2014-Oct-17 19:33N 37°53' W 008°54'2 2.2
2014-Oct-17 18:33N 37°54' W 008°57'1 1.4
2014-Oct-17 17:33N 37°54' W 008°58'1 0.9
2014-Oct-17 16:33N 37°53' W 008°59'1 0.6
2014-Oct-17 15:32N 37°53' W 008°59'2 1.6
2014-Oct-17 14:30N 37°52' W 008°57'2 2.3
2014-Oct-17 13:33N 37°50' W 008°55'1212.3
2014-Oct-17 12:33N 37°39' W 009°01'1817.4
2014-Oct-17 11:33N 37°23' W 009°10'4615.2
2014-Oct-17 08:33N 36°39' W 008°52'16419.9
2014-Oct-17 00:18N 35°57' W 005°35'1418.6
2014-Oct-16 23:33N 36°02' W 005°19'21219.3
2014-Oct-16 12:33N 37°09' W 001°08'2120.9
2014-Oct-16 11:33N 37°23' W 000°48'2121.0
2014-Oct-16 10:33N 37°39' W 000°30'2120.9
2014-Oct-16 09:33N 37°56' W 000°15'2221.4
2014-Oct-16 08:33N 38°14' W 000°02'6917.2
2014-Oct-16 04:33N 39°23' W 000°12'7 6.8
2014-Oct-16 03:33N 39°26' W 000°19'0 0.0
2014-Oct-16 02:32N 39°26' W 000°19'0 0.0
2014-Oct-16 01:32N 39°26' W 000°19'0 0.0
2014-Oct-16 00:32N 39°26' W 000°19'0 0.0
2014-Oct-15 23:32N 39°26' W 000°19'0 0.0
2014-Oct-15 22:29N 39°26' W 000°19'0 0.0
2014-Oct-15 21:20N 39°26' W 000°19'0 0.0
2014-Oct-15 20:29N 39°26' W 000°19'0 0.0
2014-Oct-15 19:32N 39°26' W 000°19'0 0.0
2014-Oct-15 18:29N 39°26' W 000°19'3 3.3
2014-Oct-15 17:33N 39°25' W 000°16'4 3.7
2014-Oct-15 16:34N 39°26' W 000°11'3020.7
2014-Oct-15 15:05N 39°39' E 000°25'1121.0
2014-Oct-15 14:33N 39°44' E 000°38'2121.0
2014-Oct-15 13:33N 39°54' E 001°02'2221.7
2014-Oct-15 12:33N 40°05' E 001°26'2120.9
2014-Oct-15 11:33N 40°16' E 001°50'2121.2
2014-Oct-15 10:33N 40°27' E 002°13'2121.3
2014-Oct-15 09:33N 40°38' E 002°37'2120.9
2014-Oct-15 08:33N 40°49' E 003°01'2121.0
2014-Oct-15 07:33N 40°60' E 003°25'2726.0
2014-Oct-15 06:32N 41°13' E 003°55'23021.0
2014-Oct-14 19:33N 43°18' E 008°17'2221.9
2014-Oct-14 18:34N 43°30' E 008°42'2221.5
2014-Oct-14 17:33N 43°40' E 009°08'2221.7
2014-Oct-14 16:34N 43°52' E 009°33'1818.0
2014-Oct-14 15:34N 44°02' E 009°54'4 4.0
2014-Oct-14 14:33N 43°58' E 009°55'1 0.6
2014-Oct-14 13:33N 43°58' E 009°54'0 0.2
2014-Oct-14 12:34N 43°58' E 009°54'7 6.7
2014-Oct-14 11:34N 44°04' E 009°51'3 2.7
2014-Oct-14 10:32N 44°07' E 009°50'0 0.0
2014-Oct-14 09:32N 44°07' E 009°50'0 0.0
2014-Oct-14 08:32N 44°07' E 009°50'0 0.0
2014-Oct-14 07:32N 44°07' E 009°50'0 0.0
2014-Oct-14 06:32N 44°07' E 009°50'0 0.0
2014-Oct-14 05:32N 44°07' E 009°50'0 0.0
2014-Oct-14 04:32N 44°07' E 009°50'0 0.0
2014-Oct-14 03:32N 44°07' E 009°50'0 0.0
2014-Oct-14 02:32N 44°07' E 009°50'0 0.0
2014-Oct-14 01:32N 44°07' E 009°50'0 0.0
2014-Oct-14 00:32N 44°07' E 009°50'0 0.0
2014-Oct-13 23:32N 44°07' E 009°50'0 0.0
2014-Oct-13 22:32N 44°07' E 009°50'0 0.0
2014-Oct-13 21:32N 44°07' E 009°50'0 0.0
2014-Oct-13 20:32N 44°07' E 009°50'0 0.0
2014-Oct-13 19:32N 44°07' E 009°50'0 0.0
2014-Oct-13 18:32N 44°07' E 009°50'0 0.0
2014-Oct-13 17:29N 44°07' E 009°50'0 0.0
2014-Oct-13 16:32N 44°07' E 009°50'0 0.0
2014-Oct-13 15:32N 44°07' E 009°50'0 0.0
2014-Oct-13 14:32N 44°07' E 009°50'0 0.0
2014-Oct-13 13:32N 44°07' E 009°50'0 0.0
2014-Oct-13 12:32N 44°07' E 009°50'0 0.0
2014-Oct-13 11:32N 44°07' E 009°50'0 0.0
2014-Oct-13 10:26N 44°07' E 009°50'0 0.0
2014-Oct-13 09:32N 44°07' E 009°50'0 0.0
2014-Oct-13 08:32N 44°07' E 009°50'54 6.8
2014-Oct-13 00:30N 43°13' E 009°41'40211.1
2014-Oct-11 12:29N 38°27' E 015°54'0 0.0
2014-Oct-11 10:29N 38°27' E 015°54'5 2.5
2014-Oct-11 08:31N 38°27' E 015°48'9 9.6
2014-Oct-11 07:32N 38°26' E 015°36'1010.3
2014-Oct-11 06:33N 38°23' E 015°24'1010.0
2014-Oct-11 05:32N 38°20' E 015°11'1010.1
2014-Oct-11 04:33N 38°20' E 014°58'1010.3
2014-Oct-11 03:33N 38°20' E 014°45'1210.4
2014-Oct-11 02:25N 38°20' E 014°30'910.3
2014-Oct-11 01:33N 38°20' E 014°19'1010.2
2014-Oct-11 00:33N 38°21' E 014°06'1010.4
2014-Oct-10 23:33N 38°21' E 013°53'1010.2
2014-Oct-10 22:33N 38°21' E 013°40'1010.3
2014-Oct-10 21:33N 38°21' E 013°27'1010.2
2014-Oct-10 20:32N 38°21' E 013°13'1010.7
2014-Oct-10 19:33N 38°21' E 012°60'1110.4
2014-Oct-10 18:33N 38°21' E 012°46'1616.2
2014-Oct-10 17:32N 38°20' E 012°26'9217.3
2014-Oct-10 12:13N 38°07' E 010°29'1217.3
2014-Oct-10 11:33N 38°05' E 010°15'1717.3
2014-Oct-10 10:33N 38°03' E 009°53'3817.5
2014-Oct-10 08:24N 37°57' E 009°06'2017.5
2014-Oct-10 07:16N 37°54' E 008°41'1617.0
2014-Oct-10 06:20N 37°52' E 008°21'1718.4
2014-Oct-10 05:25N 37°50' E 007°60'3717.1
2014-Oct-10 03:15N 37°43' E 007°14'3117.0
2014-Oct-10 01:26N 37°37' E 006°36'1517.0
2014-Oct-10 00:33N 37°34' E 006°17'11917.0
2014-Oct-09 17:32N 37°12' E 003°50'1817.7
2014-Oct-09 16:31N 37°09' E 003°28'1717.3
2014-Oct-09 15:31N 37°05' E 003°06'1717.9
2014-Oct-09 14:33N 37°02' E 002°45'1817.8
2014-Oct-09 13:33N 36°60' E 002°23'1717.4
2014-Oct-09 12:33N 36°55' E 002°02'1717.4
2014-Oct-09 11:33N 36°52' E 001°41'1817.5
2014-Oct-09 10:33N 36°49' E 001°19'1818.2
2014-Oct-09 09:33N 36°45' E 000°57'1918.8
2014-Oct-09 08:33N 36°42' E 000°34'1918.6
2014-Oct-09 07:32N 36°39' E 000°10'1717.7
2014-Oct-09 06:33N 36°36' W 000°11'1918.4
2014-Oct-09 05:33N 36°32' W 000°33'2017.2
2014-Oct-09 04:24N 36°28' W 000°58'6917.6
2014-Oct-09 00:29N 36°15' W 002°21'13917.6
2014-Oct-08 16:33N 35°60' W 005°13'  

Dump ship's entire track history